Terminal Aerodrome Forecast
Issued by NWS

Home | Current Version | Previous Version | Text Only | Print | Product List | Glossary On
Versions: 1 2 3 4 5 6 7 8 9 10 11 12 13 14 15
000
FTUS43 KGRB 070500
TAFCWA
TAF
KCWA 070525Z 0706/0806 22005KT P6SM SCT100 BKN250
     FM070800 22007KT P6SM SCT040 OVC070
      TEMPO 0710/0714 6SM -SN BKN040
     FM071400 29012G20KT P6SM BKN040
     FM072200 29007KT P6SM BKN035
     FM080100 29004KT P6SM SCT040
      AMD LTD TO CLD VIS AND WIND TIL 071200=

USA.gov is the U.S. government's official web portal to all federal, state and local government web resources and services.